Time;durP1;ratioP1;P1;durP2;ratioP2;P2;SDS_P1;SDS_P2;PMS_P1;PMS_P2;Temp;Humidity;BMP_temperature;BMP_pressure;BME280_temperature;BME280_humidity;BME280_pressure;Samples;Min_cycle;Max_cycle;Signal;HPM_P1;HPM_P2
2021/06/22 00:00:36;;;;;;;3.30;2.40;;;;;;;16.96;80.89;100005.97;5001311;28;20141;-56
2021/06/22 00:03:03;;;;;;;2.70;2.17;;;;;;;16.95;80.08;100016.78;4996419;28;20050;-55
2021/06/22 00:05:31;;;;;;;2.28;2.08;;;;;;;16.97;80.25;100047.78;4984187;28;20057;-57
2021/06/22 00:07:58;;;;;;;2.58;1.83;;;;;;;17.01;80.31;100054.56;5004042;28;20365;-58
2021/06/22 00:10:29;;;;;;;1.52;1.42;;;;;;;17.06;79.30;100046.19;4997068;28;20501;-59
2021/06/22 00:12:56;;;;;;;2.17;2.00;;;;;;;17.12;79.92;100035.88;5000451;28;20053;-53
2021/06/22 00:15:24;;;;;;;2.08;1.98;;;;;;;17.16;79.80;100020.41;4999312;28;20107;-56
2021/06/22 00:17:51;;;;;;;2.90;1.85;;;;;;;17.14;79.81;100015.19;5003314;28;20056;-55
2021/06/22 00:20:19;;;;;;;1.83;1.73;;;;;;;17.10;78.74;100000.34;4982755;28;20102;-56
2021/06/22 00:22:45;;;;;;;1.90;1.65;;;;;;;17.01;78.50;100006.41;4997084;28;20047;-56
2021/06/22 00:25:14;;;;;;;1.90;1.80;;;;;;;16.89;78.57;100010.06;5000299;28;20058;-56
2021/06/22 00:27:41;;;;;;;1.80;1.70;;;;;;;16.89;79.36;99999.38;5003206;28;20042;-58
2021/06/22 00:30:10;;;;;;;2.00;1.77;;;;;;;16.89;80.04;99999.38;4997287;28;20093;-57
2021/06/22 00:32:37;;;;;;;1.88;1.77;;;;;;;16.94;79.45;100007.03;4996629;28;20049;-56
2021/06/22 00:35:05;;;;;;;1.90;1.80;;;;;;;17.00;79.97;100007.41;4995358;28;20061;-57
2021/06/22 00:37:31;;;;;;;2.00;1.90;;;;;;;17.05;79.80;99999.00;4993812;28;20057;-57
2021/06/22 00:39:58;;;;;;;1.58;1.48;;;;;;;17.05;79.62;99986.47;4996242;28;20050;-58
2021/06/22 00:42:24;;;;;;;1.88;1.77;;;;;;;16.99;78.89;99984.31;4998877;28;20050;-59
2021/06/22 00:44:54;;;;;;;2.42;1.70;;;;;;;16.88;79.38;99976.28;4999115;28;20046;-55
2021/06/22 00:47:21;;;;;;;2.20;2.00;;;;;;;16.77;80.11;99966.44;4996544;28;20042;-58
2021/06/22 00:49:49;;;;;;;3.10;1.70;;;;;;;16.64;80.27;99957.69;4996132;28;21764;-58
2021/06/22 00:52:24;;;;;;;2.28;1.63;;;;;;;16.46;80.89;99949.28;4997373;28;20050;-54
2021/06/22 00:54:50;;;;;;;1.80;1.52;;;;;;;16.42;80.96;99958.50;4992578;28;20057;-58
2021/06/22 00:57:18;;;;;;;1.45;1.40;;;;;;;16.32;81.21;99957.50;4995173;28;20079;-57
2021/06/22 00:59:46;;;;;;;1.85;1.75;;;;;;;16.26;81.91;99952.63;4998929;28;20585;-56
2021/06/22 01:02:12;;;;;;;1.92;1.83;;;;;;;16.27;82.13;99948.16;5001125;28;20046;-56
2021/06/22 01:04:39;;;;;;;1.80;1.70;;;;;;;16.25;81.76;99950.06;5000843;28;20049;-57
2021/06/22 01:07:06;;;;;;;1.50;1.40;;;;;;;16.20;82.34;99953.13;4993600;28;20511;-57
2021/06/22 01:09:33;;;;;;;1.73;1.42;;;;;;;16.19;82.77;99946.09;4997702;28;20461;-59
2021/06/22 01:12:00;;;;;;;1.60;1.50;;;;;;;16.20;83.18;99933.56;4995855;28;20056;-55
2021/06/22 01:14:27;;;;;;;2.28;1.50;;;;;;;16.25;83.61;99926.88;4974032;28;20552;-58
2021/06/22 01:16:55;;;;;;;2.75;1.40;;;;;;;16.24;82.53;99917.16;4998263;28;20045;-54
2021/06/22 01:19:23;;;;;;;1.40;1.30;;;;;;;16.26;81.72;99931.25;5002842;28;20176;-57
2021/06/22 01:21:50;;;;;;;1.95;1.13;;;;;;;16.22;80.91;99919.09;4997638;28;20079;-57
2021/06/22 01:24:20;;;;;;;1.85;1.08;;;;;;;16.23;81.51;99923.47;4999095;28;20061;-57
2021/06/22 01:26:50;;;;;;;1.00;1.00;;;;;;;16.22;80.82;99921.78;4998241;28;22365;-56
2021/06/22 01:29:17;;;;;;;2.57;0.90;;;;;;;16.22;79.79;99920.94;5003122;28;20527;-56
2021/06/22 01:31:44;;;;;;;1.25;1.00;;;;;;;16.12;80.18;99921.66;5003833;28;20546;-56
2021/06/22 01:34:12;;;;;;;1.02;0.85;;;;;;;16.10;79.92;99912.03;4993525;28;20058;-57
2021/06/22 01:36:45;;;;;;;0.80;0.80;;;;;;;16.09;80.59;99919.22;4998867;28;20046;-57
2021/06/22 01:39:13;;;;;;;1.10;0.80;;;;;;;16.10;80.21;99938.75;4996637;28;20613;-57
2021/06/22 01:41:41;;;;;;;0.70;0.70;;;;;;;16.13;79.92;99943.88;4991606;28;20057;-59
2021/06/22 01:44:08;;;;;;;0.70;0.63;;;;;;;16.17;79.35;99941.81;5002209;28;20681;-59
2021/06/22 01:46:34;;;;;;;0.70;0.63;;;;;;;16.20;79.29;99930.91;4992101;28;20053;-57
2021/06/22 01:49:01;;;;;;;0.70;0.70;;;;;;;16.23;79.54;99926.16;4998635;28;20140;-56
2021/06/22 01:51:27;;;;;;;1.73;0.70;;;;;;;16.21;79.25;99922.78;5002811;28;20065;-57
2021/06/22 01:53:56;;;;;;;0.88;0.60;;;;;;;16.19;78.98;99930.06;4997865;28;20046;-57
2021/06/22 01:56:25;;;;;;;1.67;0.70;;;;;;;16.15;79.48;99923.25;5002280;28;20045;-59
2021/06/22 01:58:52;;;;;;;0.73;0.70;;;;;;;16.11;79.43;99914.59;5005121;28;20420;-57
2021/06/22 02:01:20;;;;;;;1.02;0.55;;;;;;;16.07;79.54;99915.81;4987375;28;20074;-57
2021/06/22 02:03:47;;;;;;;0.90;0.70;;;;;;;16.06;79.75;99926.59;5001545;28;20054;-57
2021/06/22 02:06:14;;;;;;;0.73;0.70;;;;;;;16.06;79.95;99926.59;4978459;28;20061;-56
2021/06/22 02:08:40;;;;;;;0.80;0.50;;;;;;;16.08;80.01;99943.38;5010275;28;20058;-59
2021/06/22 02:11:07;;;;;;;0.73;0.68;;;;;;;16.12;80.62;99960.88;5006228;28;20057;-57
2021/06/22 02:13:34;;;;;;;2.00;0.52;;;;;;;16.19;79.59;99961.25;5003568;28;20064;-56
2021/06/22 02:16:00;;;;;;;0.60;0.50;;;;;;;16.18;79.51;99964.91;4997215;28;21060;-55
2021/06/22 02:18:27;;;;;;;0.60;0.60;;;;;;;16.21;79.48;99970.00;4994986;28;20517;-58
2021/06/22 02:20:54;;;;;;;1.27;0.60;;;;;;;16.23;79.16;99970.72;4997010;28;20061;-56
2021/06/22 02:23:20;;;;;;;3.15;0.60;;;;;;;16.21;79.17;99976.22;4989753;28;20076;-55
2021/06/22 02:25:47;;;;;;;0.65;0.55;;;;;;;16.18;79.04;99979.09;4996005;28;20068;-61
2021/06/22 02:28:19;;;;;;;2.25;0.60;;;;;;;16.18;78.85;99987.13;4993634;28;20054;-57
2021/06/22 02:30:47;;;;;;;0.60;0.60;;;;;;;16.21;78.81;99992.22;4995507;28;20056;-56
2021/06/22 02:33:14;;;;;;;0.85;0.35;;;;;;;16.17;78.33;99990.75;4999667;28;20090;-56
2021/06/22 02:35:40;;;;;;;2.05;0.68;;;;;;;16.13;78.71;99995.47;4992470;28;20056;-59
2021/06/22 02:38:07;;;;;;;0.60;0.50;;;;;;;16.10;78.39;99994.84;4993563;28;20046;-55
2021/06/22 02:40:34;;;;;;;0.60;0.60;;;;;;;16.04;79.15;99998.00;5002821;28;20046;-58
2021/06/22 02:43:01;;;;;;;3.72;0.50;;;;;;;16.02;79.28;100002.59;4980903;28;20053;-56
2021/06/22 02:45:28;;;;;;;0.68;0.47;;;;;;;16.02;78.93;100013.28;5002183;28;20057;-57
2021/06/22 02:47:56;;;;;;;1.13;0.45;;;;;;;16.00;78.55;100008.06;4993684;28;20053;-57
2021/06/22 02:50:23;;;;;;;0.75;0.57;;;;;;;16.01;79.30;100007.09;4993663;28;20054;-59
2021/06/22 02:52:49;;;;;;;0.47;0.47;;;;;;;16.05;79.50;100003.25;4998518;28;20526;-57
2021/06/22 02:55:19;;;;;;;3.92;0.70;;;;;;;16.02;79.02;99998.13;4991762;28;20425;-56
2021/06/22 02:57:53;;;;;;;1.27;0.50;;;;;;;16.01;78.83;100000.91;4992783;28;20041;-59
2021/06/22 03:00:22;;;;;;;1.52;0.60;;;;;;;15.93;78.83;100000.63;4992900;28;20061;-58
2021/06/22 03:02:50;;;;;;;1.67;0.50;;;;;;;15.90;78.76;100003.53;4994886;28;20430;-58
2021/06/22 03:05:18;;;;;;;0.40;0.40;;;;;;;15.83;79.71;100008.47;4983424;28;20042;-57
2021/06/22 03:07:46;;;;;;;0.68;0.50;;;;;;;15.83;79.74;100011.16;4995124;28;20038;-56
2021/06/22 03:10:15;;;;;;;2.42;0.55;;;;;;;15.87;79.55;100007.28;4987622;28;20042;-57
2021/06/22 03:12:42;;;;;;;0.70;0.60;;;;;;;15.89;79.44;99999.16;4994548;28;20517;-56
2021/06/22 03:15:12;;;;;;;1.48;0.60;;;;;;;15.87;79.43;99999.28;4995340;28;20064;-58
2021/06/22 03:17:38;;;;;;;0.63;0.52;;;;;;;15.88;79.78;100002.81;5004271;28;20128;-56
2021/06/22 03:20:08;;;;;;;0.60;0.60;;;;;;;15.84;79.62;100002.16;5005916;28;20053;-57
2021/06/22 03:22:35;;;;;;;0.75;0.75;;;;;;;15.82;79.76;99989.91;5012554;28;20049;-56
2021/06/22 03:25:04;;;;;;;0.68;0.68;;;;;;;15.79;79.45;99991.81;4999305;28;20061;-57
2021/06/22 03:27:30;;;;;;;1.02;0.57;;;;;;;15.77;79.62;99988.41;5004284;28;20064;-57
2021/06/22 03:29:57;;;;;;;1.40;0.68;;;;;;;15.74;79.97;99988.63;4995722;28;20046;-54
2021/06/22 03:32:25;;;;;;;1.85;0.70;;;;;;;15.83;80.83;99992.47;5008046;28;20056;-55
2021/06/22 03:34:52;;;;;;;0.70;0.60;;;;;;;15.90;79.27;99998.19;5026944;28;20736;-55
2021/06/22 03:37:19;;;;;;;1.30;0.50;;;;;;;15.88;79.13;99997.47;5020257;28;20049;-57
2021/06/22 03:39:47;;;;;;;0.55;0.55;;;;;;;15.84;79.33;99998.66;5033689;28;20110;-56
2021/06/22 03:42:14;;;;;;;1.60;0.50;;;;;;;15.79;79.46;99991.81;5018818;28;22010;-56
2021/06/22 03:44:41;;;;;;;0.45;0.45;;;;;;;15.77;79.66;99995.56;5021135;28;20061;-56
2021/06/22 03:47:07;;;;;;;0.98;0.60;;;;;;;15.77;79.72;99984.91;5023049;28;20053;-56
2021/06/22 03:49:34;;;;;;;2.67;0.73;;;;;;;15.79;79.93;99991.81;5029947;28;20058;-55
2021/06/22 03:52:01;;;;;;;1.30;0.60;;;;;;;15.86;80.02;100004.72;5029223;28;20041;-56
2021/06/22 03:54:27;;;;;;;0.70;0.60;;;;;;;15.90;79.73;100011.56;5024338;28;20048;-55
2021/06/22 03:56:54;;;;;;;0.85;0.50;;;;;;;15.93;79.60;100009.47;5031636;28;20048;-58
2021/06/22 03:59:20;;;;;;;3.03;0.60;;;;;;;15.94;79.47;100013.00;5035382;28;20152;-57
2021/06/22 04:01:47;;;;;;;0.73;0.57;;;;;;;15.96;79.01;100016.41;5023117;28;20054;-57
2021/06/22 04:04:13;;;;;;;0.70;0.60;;;;;;;15.94;79.10;100000.50;5033815;28;20048;-57
2021/06/22 04:06:40;;;;;;;0.60;0.57;;;;;;;15.92;79.17;100002.44;5024246;28;20055;-58
2021/06/22 04:09:06;;;;;;;1.75;0.60;;;;;;;15.96;78.96;99995.91;5033729;28;20638;-56
2021/06/22 04:11:33;;;;;;;1.38;0.50;;;;;;;16.02;77.83;100011.47;5016617;28;20061;-56
2021/06/22 04:13:59;;;;;;;0.65;0.60;;;;;;;16.02;77.94;100005.28;5018966;28;20050;-56
2021/06/22 04:16:26;;;;;;;0.50;0.40;;;;;;;16.06;78.44;100010.25;5017689;28;20065;-57
2021/06/22 04:18:52;;;;;;;0.52;0.50;;;;;;;16.11;78.02;100013.44;5011122;28;20124;-57
2021/06/22 04:21:19;;;;;;;1.20;0.30;;;;;;;16.11;75.94;100008.09;5022584;28;20500;-58
2021/06/22 04:23:46;;;;;;;1.05;0.30;;;;;;;16.07;75.79;100011.09;5018668;28;20049;-57
2021/06/22 04:26:12;;;;;;;3.65;0.38;;;;;;;16.03;75.91;100005.16;5013875;28;20050;-58
2021/06/22 04:28:39;;;;;;;0.40;0.30;;;;;;;15.99;75.61;100003.69;5019353;28;20045;-59
2021/06/22 04:31:05;;;;;;;0.85;0.40;;;;;;;15.98;76.14;100022.50;5017035;28;20062;-58
2021/06/22 04:33:31;;;;;;;1.55;0.40;;;;;;;16.08;76.35;100019.00;5018562;28;20060;-58
2021/06/22 04:35:58;;;;;;;1.00;0.30;;;;;;;16.30;74.60;100017.38;5013956;28;20057;-56
2021/06/22 04:38:25;;;;;;;0.98;0.63;;;;;;;16.51;74.42;100017.56;5017266;28;20194;-58
2021/06/22 04:40:51;;;;;;;0.52;0.40;;;;;;;16.52;73.17;100024.63;5015677;28;20061;-56
2021/06/22 04:43:18;;;;;;;0.40;0.40;;;;;;;16.49;73.17;100033.72;5018615;28;20056;-57
2021/06/22 04:45:44;;;;;;;0.52;0.50;;;;;;;16.53;73.19;100035.16;5026332;28;20053;-56
2021/06/22 04:48:11;;;;;;;0.80;0.50;;;;;;;16.57;73.13;100038.44;5027776;28;20050;-53
2021/06/22 04:50:37;;;;;;;1.33;0.70;;;;;;;16.60;73.10;100040.88;5020088;28;20547;-58
2021/06/22 04:53:04;;;;;;;0.70;0.60;;;;;;;16.70;73.07;100052.59;5036097;28;20061;-54
2021/06/22 04:55:31;;;;;;;0.60;0.50;;;;;;;16.66;72.48;100048.47;5028580;28;20202;-55
2021/06/22 04:57:59;;;;;;;1.73;0.57;;;;;;;16.59;72.49;100048.06;5031403;28;20412;-57
2021/06/22 05:00:28;;;;;;;1.80;0.70;;;;;;;16.53;73.12;100051.19;5014058;28;20045;-54
2021/06/22 05:02:54;;;;;;;0.60;0.60;;;;;;;16.57;73.98;100049.13;5037876;28;20186;-55
2021/06/22 05:05:21;;;;;;;0.52;0.52;;;;;;;16.64;73.07;100055.75;5028656;28;20041;-54
2021/06/22 05:07:48;;;;;;;0.50;0.50;;;;;;;16.70;73.49;100048.09;5034439;28;20512;-55
2021/06/22 05:10:15;;;;;;;0.63;0.52;;;;;;;16.88;74.17;100047.63;5023244;28;20053;-55
2021/06/22 05:12:42;;;;;;;1.35;0.60;;;;;;;16.97;72.84;100055.81;5018666;28;20050;-55
2021/06/22 05:15:10;;;;;;;2.22;0.60;;;;;;;16.99;72.58;100053.88;5031023;28;20050;-58
2021/06/22 05:17:37;;;;;;;1.70;0.70;;;;;;;17.00;72.72;100068.91;5014935;28;20053;-55
2021/06/22 05:20:05;;;;;;;1.30;0.63;;;;;;;17.01;71.75;100077.78;5018861;28;20041;-53
2021/06/22 05:22:32;;;;;;;0.70;0.70;;;;;;;17.03;72.09;100079.38;5031717;28;20488;-55
2021/06/22 05:24:59;;;;;;;1.13;0.82;;;;;;;16.99;72.08;100075.28;5027966;28;20049;-54
2021/06/22 05:27:26;;;;;;;0.77;0.70;;;;;;;16.86;73.04;100073.66;5036562;28;20046;-54
2021/06/22 05:29:52;;;;;;;2.38;0.65;;;;;;;16.75;72.62;100077.16;5018103;28;20068;-57
2021/06/22 05:32:19;;;;;;;0.60;0.60;;;;;;;16.65;73.40;100078.84;5022115;28;20037;-55
2021/06/22 05:34:46;;;;;;;0.82;0.82;;;;;;;16.54;73.54;100078.78;5024165;28;20053;-53
2021/06/22 05:37:12;;;;;;;1.15;0.90;;;;;;;16.57;73.91;100090.09;5025024;28;20064;-56
2021/06/22 05:39:39;;;;;;;1.40;0.90;;;;;;;16.67;74.08;100084.94;5030314;28;20052;-56
2021/06/22 05:42:06;;;;;;;1.30;0.80;;;;;;;16.79;73.73;100092.00;5020928;28;20072;-55
2021/06/22 05:44:32;;;;;;;0.88;0.65;;;;;;;16.90;72.94;100084.00;5034205;28;20073;-57
2021/06/22 05:47:01;;;;;;;0.75;0.75;;;;;;;16.98;72.27;100086.09;5030902;28;20562;-55
2021/06/22 05:49:28;;;;;;;1.38;0.75;;;;;;;17.09;72.33;100083.41;5022100;28;20057;-54
2021/06/22 05:51:54;;;;;;;1.70;1.02;;;;;;;17.23;72.17;100098.38;5030731;28;20053;-56
2021/06/22 05:54:21;;;;;;;1.75;1.08;;;;;;;17.38;71.35;100094.47;5026800;28;20048;-55
2021/06/22 05:56:47;;;;;;;2.78;0.70;;;;;;;17.48;70.93;100095.44;5022992;28;20049;-59
2021/06/22 05:59:14;;;;;;;1.05;0.80;;;;;;;17.47;69.70;100093.75;5017242;28;20067;-56
2021/06/22 06:01:41;;;;;;;1.08;0.68;;;;;;;17.42;70.66;100079.88;4999808;28;20432;-57
2021/06/22 06:04:08;;;;;;;1.40;0.70;;;;;;;17.44;69.51;100080.59;5013287;28;20057;-58
2021/06/22 06:06:34;;;;;;;2.78;0.70;;;;;;;17.51;68.67;100079.97;5013733;28;20056;-56
2021/06/22 06:09:01;;;;;;;1.98;0.70;;;;;;;17.65;68.52;100084.25;5020988;28;20052;-55
2021/06/22 06:11:27;;;;;;;1.88;1.00;;;;;;;17.84;68.38;100086.28;5012087;28;20060;-56
2021/06/22 06:13:54;;;;;;;1.30;0.90;;;;;;;18.03;67.48;100082.94;5019568;28;20053;-57
2021/06/22 06:16:21;;;;;;;0.80;0.80;;;;;;;18.10;67.13;100087.66;5015167;28;20053;-58
2021/06/22 06:18:47;;;;;;;0.63;0.55;;;;;;;18.23;67.37;100090.19;5012337;28;20056;-56
2021/06/22 06:21:14;;;;;;;0.80;0.80;;;;;;;18.53;64.84;100086.75;5025521;28;20053;-55
2021/06/22 06:23:43;;;;;;;1.63;0.80;;;;;;;18.71;64.36;100085.22;5016813;28;20049;-57
2021/06/22 06:26:12;;;;;;;0.80;0.80;;;;;;;18.82;63.87;100081.59;5019348;28;20057;-53
2021/06/22 06:28:47;;;;;;;1.48;0.80;;;;;;;18.85;63.46;100076.84;5012561;28;20050;-56
2021/06/22 06:31:13;;;;;;;2.10;0.80;;;;;;;19.20;62.32;100089.84;5000986;28;20669;-56
2021/06/22 06:33:40;;;;;;;1.23;0.68;;;;;;;19.05;62.05;100083.13;5024969;28;20052;-56
2021/06/22 06:36:07;;;;;;;0.80;0.65;;;;;;;19.04;63.13;100072.56;5031980;28;20041;-57
2021/06/22 06:38:33;;;;;;;1.05;0.80;;;;;;;18.93;62.36;100073.47;5006842;28;20544;-56
2021/06/22 06:41:00;;;;;;;0.70;0.70;;;;;;;18.77;62.99;100065.03;5031162;28;20061;-57
2021/06/22 06:43:27;;;;;;;0.70;0.70;;;;;;;18.79;62.34;100076.50;5021176;28;20045;-56
2021/06/22 06:45:53;;;;;;;1.08;0.65;;;;;;;18.62;62.92;100082.44;5042808;28;20056;-57
2021/06/22 06:48:20;;;;;;;0.50;0.50;;;;;;;18.58;63.42;100077.34;5018620;28;20045;-57
2021/06/22 06:50:47;;;;;;;1.48;0.70;;;;;;;18.62;64.16;100085.97;5040189;28;20063;-57
2021/06/22 06:53:13;;;;;;;1.92;0.77;;;;;;;18.52;63.30;100101.97;5011899;28;20136;-57
2021/06/22 06:55:45;;;;;;;1.75;0.70;;;;;;;18.55;63.49;100096.38;5027734;28;20493;-54
2021/06/22 06:58:12;;;;;;;2.15;0.65;;;;;;;18.53;63.21;100090.28;5034885;28;20092;-55
2021/06/22 07:00:39;;;;;;;1.23;0.68;;;;;;;18.34;63.98;100089.28;5020014;28;20665;-54
2021/06/22 07:03:06;;;;;;;1.55;0.70;;;;;;;18.16;64.62;100107.75;5030804;28;20056;-57
2021/06/22 07:05:34;;;;;;;0.82;0.60;;;;;;;18.02;65.28;100108.03;5005261;28;20204;-55
2021/06/22 07:08:01;;;;;;;2.08;1.00;;;;;;;17.99;65.49;100110.97;5007139;28;20049;-57
2021/06/22 07:10:28;;;;;;;2.38;1.05;;;;;;;18.06;65.56;100109.50;5015899;28;20048;-56
2021/06/22 07:12:57;;;;;;;1.77;0.70;;;;;;;18.11;66.25;100113.47;5012281;28;20069;-56
2021/06/22 07:15:33;;;;;;;1.13;0.80;;;;;;;18.39;65.59;100114.72;5031569;28;20084;-56
2021/06/22 07:18:00;;;;;;;2.13;0.75;;;;;;;18.79;64.47;100103.31;5022144;28;20049;-56
2021/06/22 07:20:27;;;;;;;0.82;0.60;;;;;;;18.89;62.39;100117.63;5017353;28;20056;-58
2021/06/22 07:22:53;;;;;;;0.75;0.70;;;;;;;18.86;62.94;100115.25;5032633;28;20067;-56
2021/06/22 07:25:20;;;;;;;0.65;0.57;;;;;;;18.88;62.49;100129.38;5017458;28;20049;-57
2021/06/22 07:27:48;;;;;;;2.53;0.80;;;;;;;18.86;63.80;100126.81;5022162;28;20188;-56
2021/06/22 07:30:16;;;;;;;2.83;0.98;;;;;;;19.03;63.64;100111.09;5030234;28;20101;-58
2021/06/22 07:32:43;;;;;;;1.20;0.80;;;;;;;19.01;62.46;100111.25;4997922;28;20061;-57
2021/06/22 07:35:11;;;;;;;3.53;0.82;;;;;;;18.96;63.27;100116.13;4997107;28;20055;-57
2021/06/22 07:37:38;;;;;;;0.75;0.60;;;;;;;18.98;62.59;100129.44;4996760;28;20057;-58
2021/06/22 07:40:05;;;;;;;1.55;1.00;;;;;;;19.05;62.41;100125.22;5001518;28;23949;-54
2021/06/22 07:42:32;;;;;;;0.63;0.63;;;;;;;19.25;63.25;100137.78;5012759;28;20060;-56
2021/06/22 07:44:58;;;;;;;0.77;0.77;;;;;;;19.08;61.58;100125.81;5005653;28;20124;-56
2021/06/22 07:47:25;;;;;;;0.60;0.60;;;;;;;18.92;62.37;100120.91;5014133;28;20237;-56
2021/06/22 07:49:52;;;;;;;0.95;0.85;;;;;;;18.97;62.39;100125.91;5010791;28;20058;-57
2021/06/22 07:52:18;;;;;;;0.95;0.85;;;;;;;19.00;62.13;100138.19;5005910;28;20057;-57
2021/06/22 07:54:47;;;;;;;1.10;0.90;;;;;;;19.09;62.69;100116.78;4993772;28;20725;-57
2021/06/22 07:57:14;;;;;;;1.00;0.90;;;;;;;19.20;61.62;100122.06;5015863;28;20049;-60
2021/06/22 07:59:40;;;;;;;1.75;0.80;;;;;;;19.15;61.89;100124.31;5011820;28;20054;-55
2021/06/22 08:02:08;;;;;;;1.42;0.80;;;;;;;19.21;61.58;100134.50;5000184;28;20048;-53
2021/06/22 08:04:34;;;;;;;1.00;0.90;;;;;;;19.24;62.09;100126.19;5009040;28;20497;-52
2021/06/22 08:07:01;;;;;;;1.65;0.82;;;;;;;19.45;61.95;100133.34;5011526;28;20045;-55
2021/06/22 08:09:27;;;;;;;1.00;0.65;;;;;;;19.60;60.55;100127.50;5011217;28;20066;-53
2021/06/22 08:11:54;;;;;;;1.13;1.00;;;;;;;19.68;60.93;100123.28;5010239;28;20054;-54
2021/06/22 08:14:20;;;;;;;4.53;0.80;;;;;;;19.86;60.47;100127.84;5019371;28;20057;-56
2021/06/22 08:16:47;;;;;;;0.93;0.70;;;;;;;20.01;59.38;100130.16;4996392;28;20050;-52
2021/06/22 08:19:14;;;;;;;1.23;0.70;;;;;;;20.08;58.58;100128.63;4980710;28;20061;-57
2021/06/22 08:21:40;;;;;;;1.20;1.10;;;;;;;20.09;59.17;100138.38;5006088;28;20160;-56
2021/06/22 08:24:07;;;;;;;3.20;0.80;;;;;;;20.00;59.15;100136.50;5014734;28;20454;-56
2021/06/22 08:26:34;;;;;;;0.60;0.60;;;;;;;20.02;58.30;100130.00;5017508;28;20079;-57
2021/06/22 08:29:01;;;;;;;2.78;0.90;;;;;;;20.06;59.62;100127.91;5013424;28;20057;-56
2021/06/22 08:31:28;;;;;;;1.40;0.70;;;;;;;20.47;57.73;100124.97;5030018;28;20075;-57
2021/06/22 08:33:55;;;;;;;1.25;0.80;;;;;;;20.58;57.30;100132.09;5029598;28;20488;-56
2021/06/22 08:36:21;;;;;;;1.00;1.00;;;;;;;20.45;57.34;100132.38;5025118;28;20131;-56
2021/06/22 08:38:48;;;;;;;2.40;0.80;;;;;;;20.07;58.04;100135.84;5035309;28;20055;-56
2021/06/22 08:41:15;;;;;;;0.70;0.70;;;;;;;20.02;58.91;100134.53;5037517;28;20053;-57
2021/06/22 08:43:43;;;;;;;2.03;0.75;;;;;;;20.03;59.91;100133.53;5034963;28;20065;-57
2021/06/22 08:46:10;;;;;;;0.70;0.70;;;;;;;20.18;59.38;100141.06;5018270;28;20053;-57
2021/06/22 08:48:37;;;;;;;0.70;0.70;;;;;;;20.40;58.46;100131.94;5003583;28;20418;-57
2021/06/22 08:51:03;;;;;;;1.35;0.90;;;;;;;20.62;58.46;100142.41;5025238;28;20540;-57
2021/06/22 08:53:30;;;;;;;0.80;0.80;;;;;;;20.62;56.47;100149.63;5022812;28;20401;-56
2021/06/22 08:55:56;;;;;;;1.17;0.90;;;;;;;20.42;57.76;100140.72;5029993;28;20057;-55
2021/06/22 08:58:23;;;;;;;1.23;0.85;;;;;;;20.27;58.75;100144.78;5021300;28;20059;-56
2021/06/22 09:00:51;;;;;;;0.85;0.85;;;;;;;20.40;58.44;100145.38;5024728;28;20692;-57
2021/06/22 09:03:24;;;;;;;1.75;1.17;;;;;;;20.42;57.55;100132.66;5025735;28;20616;-56
2021/06/22 09:05:54;;;;;;;2.78;1.00;;;;;;;20.44;58.10;100138.75;5030865;28;20076;-55
2021/06/22 09:08:27;;;;;;;0.98;0.70;;;;;;;20.51;58.06;100136.31;5026398;28;20057;-57
2021/06/22 09:11:14;;;;;;;2.95;0.90;;;;;;;20.56;58.83;100142.97;5043446;28;20338;-57
2021/06/22 09:13:58;;;;;;;1.75;0.90;;;;;;;20.48;58.45;100137.44;5024567;28;20508;-56
2021/06/22 09:16:26;;;;;;;1.73;0.77;;;;;;;20.51;58.07;100139.00;5023137;28;20052;-57
2021/06/22 09:18:59;;;;;;;2.47;1.02;;;;;;;20.64;57.62;100140.41;5024041;28;20052;-55
2021/06/22 09:21:26;;;;;;;1.98;0.75;;;;;;;20.59;58.36;100136.47;5021991;28;20496;-58
2021/06/22 09:23:54;;;;;;;0.93;0.82;;;;;;;20.63;58.44;100138.72;5033309;28;20052;-57
2021/06/22 09:26:26;;;;;;;1.25;0.80;;;;;;;20.67;57.52;100133.91;5025244;28;20064;-56
2021/06/22 09:29:05;;;;;;;1.08;0.98;;;;;;;20.54;57.84;100134.19;5029746;28;20493;-57
2021/06/22 09:31:32;;;;;;;0.90;0.90;;;;;;;20.58;58.09;100127.56;5035366;28;20088;-56
2021/06/22 09:33:59;;;;;;;1.10;1.00;;;;;;;20.72;58.08;100136.19;5023725;28;20063;-53
2021/06/22 09:36:30;;;;;;;1.27;0.90;;;;;;;20.68;58.09;100132.91;5023246;28;20072;-55
2021/06/22 09:39:01;;;;;;;0.80;0.80;;;;;;;20.56;58.39;100132.22;5022071;28;20053;-57
2021/06/22 09:41:30;;;;;;;1.55;1.10;;;;;;;20.63;58.65;100136.03;5031624;28;20045;-58
2021/06/22 09:44:13;;;;;;;1.58;1.20;;;;;;;20.69;58.35;100131.94;5034545;28;20716;-54
2021/06/22 09:46:50;;;;;;;1.85;1.00;;;;;;;20.70;58.43;100136.31;5025052;28;20051;-57
2021/06/22 09:49:18;;;;;;;2.47;0.90;;;;;;;20.71;58.29;100129.94;5031708;28;20049;-56
2021/06/22 09:52:10;;;;;;;3.10;0.90;;;;;;;20.75;58.78;100135.91;5037103;28;20060;-56
2021/06/22 09:54:54;;;;;;;1.10;0.85;;;;;;;20.70;58.50;100146.22;5030088;28;20054;-57
2021/06/22 09:57:22;;;;;;;1.40;0.82;;;;;;;20.66;59.10;100141.13;5027451;28;20045;-57
2021/06/22 09:59:56;;;;;;;2.05;0.90;;;;;;;20.55;58.82;100146.66;5031863;28;20509;-56
2021/06/22 10:02:24;;;;;;;1.20;1.10;;;;;;;20.44;59.12;100138.75;5031091;28;20037;-56
2021/06/22 10:04:53;;;;;;;1.00;0.90;;;;;;;20.41;60.21;100147.09;5046462;28;20132;-56
2021/06/22 10:07:23;;;;;;;2.58;1.00;;;;;;;20.26;60.13;100148.47;5040791;28;20050;-57
2021/06/22 10:09:53;;;;;;;1.20;1.08;;;;;;;20.19;59.96;100150.84;5030569;28;20053;-56
2021/06/22 10:12:21;;;;;;;0.98;0.85;;;;;;;20.11;60.80;100152.53;5030120;28;20038;-56
2021/06/22 10:14:50;;;;;;;1.35;1.08;;;;;;;20.05;60.99;100162.00;5028179;28;20045;-57
2021/06/22 10:17:19;;;;;;;1.77;1.10;;;;;;;19.90;61.07;100161.53;5037832;28;20076;-57
2021/06/22 10:19:51;;;;;;;1.20;1.10;;;;;;;19.81;61.52;100156.16;5034519;28;20330;-56
2021/06/22 10:22:23;;;;;;;1.20;1.10;;;;;;;19.67;62.29;100162.75;5025721;28;20472;-55
2021/06/22 10:24:54;;;;;;;1.17;1.08;;;;;;;19.64;62.71;100157.63;5026871;28;20057;-55
2021/06/22 10:27:21;;;;;;;1.30;1.20;;;;;;;19.66;62.97;100154.81;5031296;28;20050;-59
2021/06/22 10:29:51;;;;;;;1.00;1.00;;;;;;;19.70;63.19;100165.13;5026688;28;20057;-58
2021/06/22 10:32:19;;;;;;;2.17;1.45;;;;;;;19.76;63.20;100161.91;5023607;28;20057;-55
2021/06/22 10:34:51;;;;;;;1.40;1.30;;;;;;;19.64;64.03;100165.69;5027027;28;20100;-54
2021/06/22 10:37:18;;;;;;;1.30;1.20;;;;;;;19.69;64.71;100167.94;5023912;28;20457;-58
2021/06/22 10:39:53;;;;;;;3.80;1.20;;;;;;;19.75;64.00;100156.69;5026839;28;20045;-56
2021/06/22 10:42:20;;;;;;;1.40;1.23;;;;;;;19.96;63.84;100152.94;5037084;28;20049;-55
2021/06/22 10:45:03;;;;;;;2.35;1.35;;;;;;;20.23;63.65;100159.47;5034336;28;20587;-55
2021/06/22 10:47:35;;;;;;;1.90;1.20;;;;;;;20.44;63.01;100154.03;5032802;28;20064;-57
2021/06/22 10:50:09;;;;;;;1.55;1.45;;;;;;;20.56;61.65;100150.19;5027098;28;20044;-57
2021/06/22 10:52:42;;;;;;;1.90;1.17;;;;;;;20.84;61.38;100156.56;5030738;28;20496;-58
2021/06/22 10:55:10;;;;;;;2.70;1.00;;;;;;;20.91;59.30;100155.00;5037166;28;20530;-59
2021/06/22 10:57:58;;;;;;;1.15;1.00;;;;;;;20.76;60.79;100165.34;5030227;28;20053;-58
2021/06/22 11:00:28;;;;;;;1.02;0.98;;;;;;;20.84;60.72;100167.31;5025513;28;20053;-53
2021/06/22 11:02:57;;;;;;;2.35;1.60;;;;;;;20.88;60.62;100168.75;5023833;28;20057;-56
2021/06/22 11:05:23;;;;;;;1.38;1.27;;;;;;;20.78;59.74;100173.28;5034814;28;20068;-57
2021/06/22 11:08:37;;;;;;;1.50;1.40;;;;;;;20.70;59.67;100181.22;5025384;28;20103;-55
2021/06/22 11:11:07;;;;;;;2.67;1.40;;;;;;;20.78;60.21;100178.66;4943755;28;20055;-56
2021/06/22 11:14:05;;;;;;;1.37;1.27;;;;;;;20.89;59.30;100175.81;5026953;28;20070;-57
2021/06/22 11:16:32;;;;;;;1.30;1.20;;;;;;;21.00;59.61;100173.81;5019581;28;20053;-57
2021/06/22 11:19:11;;;;;;;1.52;1.20;;;;;;;21.08;59.21;100172.25;5001849;28;20084;-57
2021/06/22 11:21:58;;;;;;;1.50;1.17;;;;;;;21.17;58.42;100166.84;5023436;28;20059;-56
2021/06/22 11:24:29;;;;;;;3.08;1.35;;;;;;;21.31;58.27;100161.03;5027082;28;20137;-58
2021/06/22 11:27:00;;;;;;;3.80;1.50;;;;;;;21.46;57.78;100164.09;5031363;28;20606;-57
2021/06/22 11:29:36;;;;;;;1.25;1.23;;;;;;;21.50;57.29;100175.44;5039819;28;20061;-57
2021/06/22 11:32:03;;;;;;;3.10;1.30;;;;;;;21.46;56.89;100168.63;5030683;28;20053;-57